sensor_id;sensor_type;location;lat;lon;timestamp;P1;durP1;ratioP1;P2;durP2;ratioP2
48945;SDS011;34999;50.940;3.998;2023-04-15T00:00:56;5.93;;;5.40;;
48945;SDS011;34999;50.940;3.998;2023-04-15T00:03:25;7.03;;;5.97;;
48945;SDS011;34999;50.940;3.998;2023-04-15T00:05:54;6.47;;;5.80;;
48945;SDS011;34999;50.940;3.998;2023-04-15T00:08:22;6.93;;;6.23;;
48945;SDS011;34999;50.940;3.998;2023-04-15T00:10:51;6.77;;;6.07;;
48945;SDS011;34999;50.940;3.998;2023-04-15T00:13:19;6.77;;;6.07;;
48945;SDS011;34999;50.940;3.998;2023-04-15T00:15:47;9.53;;;6.70;;
48945;SDS011;34999;50.940;3.998;2023-04-15T00:18:17;7.67;;;6.83;;
48945;SDS011;34999;50.940;3.998;2023-04-15T00:20:45;11.03;;;7.83;;
48945;SDS011;34999;50.940;3.998;2023-04-15T00:23:13;9.70;;;7.27;;
48945;SDS011;34999;50.940;3.998;2023-04-15T00:25:41;9.97;;;8.00;;
48945;SDS011;34999;50.940;3.998;2023-04-15T00:28:09;8.67;;;7.73;;
48945;SDS011;34999;50.940;3.998;2023-04-15T00:30:38;7.67;;;6.90;;
48945;SDS011;34999;50.940;3.998;2023-04-15T00:33:07;9.43;;;7.47;;
48945;SDS011;34999;50.940;3.998;2023-04-15T00:35:36;7.63;;;6.60;;
48945;SDS011;34999;50.940;3.998;2023-04-15T00:38:05;8.97;;;7.40;;
48945;SDS011;34999;50.940;3.998;2023-04-15T00:40:34;9.40;;;7.10;;
48945;SDS011;34999;50.940;3.998;2023-04-15T00:43:03;7.60;;;6.90;;
48945;SDS011;34999;50.940;3.998;2023-04-15T00:45:31;8.43;;;7.57;;
48945;SDS011;34999;50.940;3.998;2023-04-15T00:47:59;7.33;;;6.63;;
48945;SDS011;34999;50.940;3.998;2023-04-15T00:50:28;8.83;;;7.93;;
48945;SDS011;34999;50.940;3.998;2023-04-15T00:52:57;7.67;;;6.93;;
48945;SDS011;34999;50.940;3.998;2023-04-15T00:55:25;9.03;;;7.80;;
48945;SDS011;34999;50.940;3.998;2023-04-15T00:57:54;9.03;;;7.37;;
48945;SDS011;34999;50.940;3.998;2023-04-15T01:00:23;8.53;;;7.63;;
48945;SDS011;34999;50.940;3.998;2023-04-15T01:02:52;11.03;;;7.83;;
48945;SDS011;34999;50.940;3.998;2023-04-15T01:05:20;8.77;;;7.77;;
48945;SDS011;34999;50.940;3.998;2023-04-15T01:07:48;8.47;;;7.70;;
48945;SDS011;34999;50.940;3.998;2023-04-15T01:10:18;8.50;;;7.70;;
48945;SDS011;34999;50.940;3.998;2023-04-15T01:12:46;10.43;;;8.27;;
48945;SDS011;34999;50.940;3.998;2023-04-15T01:15:15;9.63;;;8.07;;
48945;SDS011;34999;50.940;3.998;2023-04-15T01:17:43;9.83;;;8.60;;
48945;SDS011;34999;50.940;3.998;2023-04-15T01:20:11;10.83;;;8.67;;
48945;SDS011;34999;50.940;3.998;2023-04-15T01:22:42;9.87;;;8.47;;
48945;SDS011;34999;50.940;3.998;2023-04-15T01:25:11;13.53;;;8.90;;
48945;SDS011;34999;50.940;3.998;2023-04-15T01:27:45;10.07;;;8.63;;
48945;SDS011;34999;50.940;3.998;2023-04-15T01:30:13;11.07;;;8.83;;
48945;SDS011;34999;50.940;3.998;2023-04-15T01:32:41;10.57;;;8.27;;
48945;SDS011;34999;50.940;3.998;2023-04-15T01:35:09;11.07;;;8.90;;
48945;SDS011;34999;50.940;3.998;2023-04-15T01:37:38;14.33;;;9.33;;
48945;SDS011;34999;50.940;3.998;2023-04-15T01:40:07;11.63;;;9.07;;
48945;SDS011;34999;50.940;3.998;2023-04-15T01:42:36;16.40;;;9.37;;
48945;SDS011;34999;50.940;3.998;2023-04-15T01:45:07;12.40;;;8.77;;
48945;SDS011;34999;50.940;3.998;2023-04-15T01:47:35;11.57;;;9.07;;
48945;SDS011;34999;50.940;3.998;2023-04-15T01:50:04;16.37;;;10.13;;
48945;SDS011;34999;50.940;3.998;2023-04-15T01:52:34;12.13;;;9.23;;
48945;SDS011;34999;50.940;3.998;2023-04-15T01:55:02;14.00;;;9.37;;
48945;SDS011;34999;50.940;3.998;2023-04-15T01:57:31;14.10;;;9.60;;
48945;SDS011;34999;50.940;3.998;2023-04-15T01:59:59;11.57;;;9.27;;
48945;SDS011;34999;50.940;3.998;2023-04-15T02:02:30;12.70;;;9.03;;
48945;SDS011;34999;50.940;3.998;2023-04-15T02:04:58;14.00;;;9.63;;
48945;SDS011;34999;50.940;3.998;2023-04-15T02:07:27;15.27;;;9.93;;
48945;SDS011;34999;50.940;3.998;2023-04-15T02:09:57;12.97;;;10.00;;
48945;SDS011;34999;50.940;3.998;2023-04-15T02:12:25;14.97;;;9.73;;
48945;SDS011;34999;50.940;3.998;2023-04-15T02:14:53;13.97;;;10.53;;
48945;SDS011;34999;50.940;3.998;2023-04-15T02:17:22;15.80;;;10.83;;
48945;SDS011;34999;50.940;3.998;2023-04-15T02:19:51;13.17;;;10.73;;
48945;SDS011;34999;50.940;3.998;2023-04-15T02:22:20;13.83;;;10.87;;
48945;SDS011;34999;50.940;3.998;2023-04-15T02:24:49;16.03;;;11.20;;
48945;SDS011;34999;50.940;3.998;2023-04-15T02:27:17;15.43;;;10.97;;
48945;SDS011;34999;50.940;3.998;2023-04-15T02:29:45;14.50;;;10.93;;
48945;SDS011;34999;50.940;3.998;2023-04-15T02:32:13;17.10;;;11.80;;
48945;SDS011;34999;50.940;3.998;2023-04-15T02:34:41;16.10;;;11.27;;
48945;SDS011;34999;50.940;3.998;2023-04-15T02:37:11;18.87;;;11.30;;
48945;SDS011;34999;50.940;3.998;2023-04-15T02:39:41;13.40;;;10.43;;
48945;SDS011;34999;50.940;3.998;2023-04-15T02:42:09;13.13;;;9.90;;
48945;SDS011;34999;50.940;3.998;2023-04-15T02:44:38;12.47;;;9.53;;
48945;SDS011;34999;50.940;3.998;2023-04-15T02:47:07;14.47;;;9.80;;
48945;SDS011;34999;50.940;3.998;2023-04-15T02:49:37;15.63;;;9.83;;
48945;SDS011;34999;50.940;3.998;2023-04-15T02:52:05;12.80;;;9.83;;
48945;SDS011;34999;50.940;3.998;2023-04-15T02:54:35;14.47;;;9.73;;
48945;SDS011;34999;50.940;3.998;2023-04-15T02:57:03;18.30;;;10.40;;
48945;SDS011;34999;50.940;3.998;2023-04-15T02:59:32;15.40;;;11.03;;
48945;SDS011;34999;50.940;3.998;2023-04-15T03:02:00;16.47;;;11.00;;
48945;SDS011;34999;50.940;3.998;2023-04-15T03:04:29;16.57;;;10.00;;
48945;SDS011;34999;50.940;3.998;2023-04-15T03:06:57;14.83;;;10.60;;
48945;SDS011;34999;50.940;3.998;2023-04-15T03:09:26;16.23;;;10.90;;
48945;SDS011;34999;50.940;3.998;2023-04-15T03:11:55;18.27;;;10.93;;
48945;SDS011;34999;50.940;3.998;2023-04-15T03:14:24;16.33;;;10.67;;
48945;SDS011;34999;50.940;3.998;2023-04-15T03:16:52;17.47;;;10.93;;
48945;SDS011;34999;50.940;3.998;2023-04-15T03:19:20;12.93;;;9.83;;
48945;SDS011;34999;50.940;3.998;2023-04-15T03:21:48;14.83;;;10.77;;
48945;SDS011;34999;50.940;3.998;2023-04-15T03:24:17;21.90;;;11.27;;
48945;SDS011;34999;50.940;3.998;2023-04-15T03:26:45;15.20;;;10.90;;
48945;SDS011;34999;50.940;3.998;2023-04-15T03:29:15;14.47;;;9.47;;
48945;SDS011;34999;50.940;3.998;2023-04-15T03:31:43;12.17;;;9.43;;
48945;SDS011;34999;50.940;3.998;2023-04-15T03:34:11;13.87;;;10.00;;
48945;SDS011;34999;50.940;3.998;2023-04-15T03:36:39;16.07;;;9.93;;
48945;SDS011;34999;50.940;3.998;2023-04-15T03:39:08;15.50;;;9.83;;
48945;SDS011;34999;50.940;3.998;2023-04-15T03:41:36;10.97;;;9.23;;
48945;SDS011;34999;50.940;3.998;2023-04-15T03:44:04;13.60;;;9.47;;
48945;SDS011;34999;50.940;3.998;2023-04-15T03:46:34;16.00;;;10.57;;
48945;SDS011;34999;50.940;3.998;2023-04-15T03:49:02;15.67;;;10.00;;
48945;SDS011;34999;50.940;3.998;2023-04-15T03:51:31;15.67;;;9.70;;
48945;SDS011;34999;50.940;3.998;2023-04-15T03:54:00;13.27;;;10.00;;
48945;SDS011;34999;50.940;3.998;2023-04-15T03:56:28;12.50;;;9.83;;
48945;SDS011;34999;50.940;3.998;2023-04-15T03:58:57;11.30;;;9.93;;
48945;SDS011;34999;50.940;3.998;2023-04-15T04:01:25;12.73;;;9.73;;
48945;SDS011;34999;50.940;3.998;2023-04-15T04:03:55;10.37;;;9.17;;
48945;SDS011;34999;50.940;3.998;2023-04-15T04:06:23;11.63;;;9.67;;
48945;SDS011;34999;50.940;3.998;2023-04-15T04:08:52;12.40;;;9.20;;
48945;SDS011;34999;50.940;3.998;2023-04-15T04:11:20;10.63;;;9.50;;
48945;SDS011;34999;50.940;3.998;2023-04-15T04:13:48;14.30;;;9.83;;
48945;SDS011;34999;50.940;3.998;2023-04-15T04:16:16;14.70;;;10.73;;
48945;SDS011;34999;50.940;3.998;2023-04-15T04:18:44;14.60;;;10.47;;
48945;SDS011;34999;50.940;3.998;2023-04-15T04:21:14;13.37;;;10.43;;
48945;SDS011;34999;50.940;3.998;2023-04-15T04:23:42;16.40;;;11.20;;
48945;SDS011;34999;50.940;3.998;2023-04-15T04:26:10;15.17;;;10.80;;
48945;SDS011;34999;50.940;3.998;2023-04-15T04:28:38;15.20;;;10.47;;
48945;SDS011;34999;50.940;3.998;2023-04-15T04:31:07;14.60;;;11.67;;
48945;SDS011;34999;50.940;3.998;2023-04-15T04:33:35;15.00;;;11.40;;
48945;SDS011;34999;50.940;3.998;2023-04-15T04:36:03;14.50;;;11.47;;
48945;SDS011;34999;50.940;3.998;2023-04-15T04:38:33;13.40;;;11.13;;
48945;SDS011;34999;50.940;3.998;2023-04-15T04:41:01;15.87;;;12.00;;
48945;SDS011;34999;50.940;3.998;2023-04-15T04:43:30;18.73;;;12.43;;
48945;SDS011;34999;50.940;3.998;2023-04-15T04:45:58;17.87;;;13.20;;
48945;SDS011;34999;50.940;3.998;2023-04-15T04:48:26;15.60;;;11.77;;
48945;SDS011;34999;50.940;3.998;2023-04-15T04:50:55;18.30;;;13.20;;
48945;SDS011;34999;50.940;3.998;2023-04-15T04:53:23;20.83;;;12.23;;
48945;SDS011;34999;50.940;3.998;2023-04-15T04:55:53;18.23;;;13.83;;
48945;SDS011;34999;50.940;3.998;2023-04-15T04:58:22;18.23;;;12.77;;
48945;SDS011;34999;50.940;3.998;2023-04-15T05:00:50;21.30;;;13.43;;
48945;SDS011;34999;50.940;3.998;2023-04-15T05:03:18;16.60;;;13.20;;
48945;SDS011;34999;50.940;3.998;2023-04-15T05:05:46;16.10;;;12.80;;
48945;SDS011;34999;50.940;3.998;2023-04-15T05:08:15;18.13;;;13.07;;
48945;SDS011;34999;50.940;3.998;2023-04-15T05:10:43;18.00;;;13.13;;
48945;SDS011;34999;50.940;3.998;2023-04-15T05:13:13;20.80;;;13.67;;
48945;SDS011;34999;50.940;3.998;2023-04-15T05:15:42;18.27;;;13.97;;
48945;SDS011;34999;50.940;3.998;2023-04-15T05:18:10;19.87;;;13.20;;
48945;SDS011;34999;50.940;3.998;2023-04-15T05:20:39;18.87;;;14.03;;
48945;SDS011;34999;50.940;3.998;2023-04-15T05:23:07;20.07;;;13.87;;
48945;SDS011;34999;50.940;3.998;2023-04-15T05:25:35;20.13;;;14.07;;
48945;SDS011;34999;50.940;3.998;2023-04-15T05:28:04;21.50;;;13.20;;
48945;SDS011;34999;50.940;3.998;2023-04-15T05:30:34;17.93;;;13.30;;
48945;SDS011;34999;50.940;3.998;2023-04-15T05:33:02;17.97;;;13.00;;
48945;SDS011;34999;50.940;3.998;2023-04-15T05:35:31;17.10;;;13.43;;
48945;SDS011;34999;50.940;3.998;2023-04-15T05:37:59;19.93;;;13.93;;
48945;SDS011;34999;50.940;3.998;2023-04-15T05:40:27;19.47;;;13.37;;
48945;SDS011;34999;50.940;3.998;2023-04-15T05:42:56;20.70;;;12.53;;
48945;SDS011;34999;50.940;3.998;2023-04-15T05:45:25;19.60;;;13.50;;
48945;SDS011;34999;50.940;3.998;2023-04-15T05:47:54;17.40;;;12.27;;
48945;SDS011;34999;50.940;3.998;2023-04-15T05:50:23;15.97;;;12.47;;
48945;SDS011;34999;50.940;3.998;2023-04-15T05:52:51;16.63;;;12.83;;
48945;SDS011;34999;50.940;3.998;2023-04-15T05:55:20;18.33;;;13.77;;
48945;SDS011;34999;50.940;3.998;2023-04-15T05:57:48;19.10;;;12.53;;
48945;SDS011;34999;50.940;3.998;2023-04-15T06:00:17;19.47;;;12.90;;
48945;SDS011;34999;50.940;3.998;2023-04-15T06:02:46;20.13;;;13.00;;
48945;SDS011;34999;50.940;3.998;2023-04-15T06:05:16;19.90;;;12.93;;
48945;SDS011;34999;50.940;3.998;2023-04-15T06:07:44;22.90;;;13.60;;
48945;SDS011;34999;50.940;3.998;2023-04-15T06:10:14;21.60;;;14.53;;
48945;SDS011;34999;50.940;3.998;2023-04-15T06:12:42;16.77;;;12.87;;
48945;SDS011;34999;50.940;3.998;2023-04-15T06:15:10;19.43;;;13.40;;
48945;SDS011;34999;50.940;3.998;2023-04-15T06:17:39;17.77;;;13.37;;
48945;SDS011;34999;50.940;3.998;2023-04-15T06:20:08;15.73;;;12.37;;
48945;SDS011;34999;50.940;3.998;2023-04-15T06:22:38;21.33;;;12.97;;
48945;SDS011;34999;50.940;3.998;2023-04-15T06:25:06;17.90;;;12.83;;
48945;SDS011;34999;50.940;3.998;2023-04-15T06:27:36;16.70;;;12.60;;
48945;SDS011;34999;50.940;3.998;2023-04-15T06:30:05;19.10;;;13.07;;
48945;SDS011;34999;50.940;3.998;2023-04-15T06:32:33;18.00;;;12.97;;
48945;SDS011;34999;50.940;3.998;2023-04-15T06:35:02;17.67;;;13.47;;
48945;SDS011;34999;50.940;3.998;2023-04-15T06:37:31;17.23;;;11.77;;
48945;SDS011;34999;50.940;3.998;2023-04-15T06:40:00;17.50;;;12.63;;
48945;SDS011;34999;50.940;3.998;2023-04-15T06:42:30;24.43;;;11.90;;
48945;SDS011;34999;50.940;3.998;2023-04-15T06:45:02;13.47;;;10.93;;
48945;SDS011;34999;50.940;3.998;2023-04-15T06:47:31;14.97;;;10.50;;
48945;SDS011;34999;50.940;3.998;2023-04-15T06:49:59;14.77;;;10.07;;
48945;SDS011;34999;50.940;3.998;2023-04-15T06:52:27;16.13;;;10.13;;
48945;SDS011;34999;50.940;3.998;2023-04-15T06:54:56;13.83;;;9.93;;
48945;SDS011;34999;50.940;3.998;2023-04-15T06:57:26;16.03;;;9.53;;
48945;SDS011;34999;50.940;3.998;2023-04-15T06:59:55;14.43;;;8.90;;
48945;SDS011;34999;50.940;3.998;2023-04-15T07:02:23;16.40;;;9.43;;
48945;SDS011;34999;50.940;3.998;2023-04-15T07:04:51;12.60;;;9.63;;
48945;SDS011;34999;50.940;3.998;2023-04-15T07:07:19;8.60;;;7.80;;
48945;SDS011;34999;50.940;3.998;2023-04-15T07:09:47;12.17;;;8.93;;
48945;SDS011;34999;50.940;3.998;2023-04-15T07:12:16;8.77;;;7.80;;
48945;SDS011;34999;50.940;3.998;2023-04-15T07:14:46;8.90;;;7.83;;
48945;SDS011;34999;50.940;3.998;2023-04-15T07:17:14;8.50;;;7.00;;
48945;SDS011;34999;50.940;3.998;2023-04-15T07:19:43;11.17;;;7.10;;
48945;SDS011;34999;50.940;3.998;2023-04-15T07:22:11;9.43;;;6.60;;
48945;SDS011;34999;50.940;3.998;2023-04-15T07:24:39;10.60;;;6.17;;
48945;SDS011;34999;50.940;3.998;2023-04-15T07:27:08;9.57;;;6.63;;
48945;SDS011;34999;50.940;3.998;2023-04-15T07:29:36;10.43;;;7.10;;
48945;SDS011;34999;50.940;3.998;2023-04-15T07:32:05;11.67;;;7.17;;
48945;SDS011;34999;50.940;3.998;2023-04-15T07:34:35;8.37;;;6.33;;
48945;SDS011;34999;50.940;3.998;2023-04-15T07:37:03;10.93;;;7.00;;
48945;SDS011;34999;50.940;3.998;2023-04-15T07:39:32;12.30;;;7.53;;
48945;SDS011;34999;50.940;3.998;2023-04-15T07:42:00;11.00;;;7.90;;
48945;SDS011;34999;50.940;3.998;2023-04-15T07:44:29;11.20;;;7.73;;
48945;SDS011;34999;50.940;3.998;2023-04-15T07:46:57;14.73;;;7.93;;
48945;SDS011;34999;50.940;3.998;2023-04-15T07:49:27;14.77;;;8.57;;
48945;SDS011;34999;50.940;3.998;2023-04-15T07:51:55;15.57;;;8.27;;
48945;SDS011;34999;50.940;3.998;2023-04-15T07:54:25;11.03;;;8.23;;
48945;SDS011;34999;50.940;3.998;2023-04-15T07:56:53;8.77;;;7.70;;
48945;SDS011;34999;50.940;3.998;2023-04-15T07:59:22;10.67;;;8.70;;
48945;SDS011;34999;50.940;3.998;2023-04-15T08:01:51;12.33;;;8.00;;
48945;SDS011;34999;50.940;3.998;2023-04-15T08:04:19;11.43;;;7.90;;
48945;SDS011;34999;50.940;3.998;2023-04-15T08:06:49;13.70;;;8.70;;
48945;SDS011;34999;50.940;3.998;2023-04-15T08:09:17;11.00;;;9.27;;
48945;SDS011;34999;50.940;3.998;2023-04-15T08:11:47;15.87;;;10.40;;
48945;SDS011;34999;50.940;3.998;2023-04-15T08:14:16;13.27;;;10.40;;
48945;SDS011;34999;50.940;3.998;2023-04-15T08:16:44;13.77;;;10.40;;
48945;SDS011;34999;50.940;3.998;2023-04-15T08:19:13;15.73;;;10.63;;
48945;SDS011;34999;50.940;3.998;2023-04-15T08:21:41;16.33;;;9.47;;
48945;SDS011;34999;50.940;3.998;2023-04-15T08:24:10;18.77;;;9.53;;
48945;SDS011;34999;50.940;3.998;2023-04-15T08:26:39;14.30;;;9.20;;
48945;SDS011;34999;50.940;3.998;2023-04-15T08:29:07;13.50;;;9.17;;
48945;SDS011;34999;50.940;3.998;2023-04-15T08:31:36;12.53;;;8.43;;
48945;SDS011;34999;50.940;3.998;2023-04-15T08:34:04;14.00;;;9.33;;
48945;SDS011;34999;50.940;3.998;2023-04-15T08:36:32;14.67;;;9.23;;
48945;SDS011;34999;50.940;3.998;2023-04-15T08:39:01;14.60;;;9.03;;
48945;SDS011;34999;50.940;3.998;2023-04-15T08:41:33;21.97;;;9.87;;
48945;SDS011;34999;50.940;3.998;2023-04-15T08:44:06;11.73;;;8.67;;
48945;SDS011;34999;50.940;3.998;2023-04-15T08:46:35;17.97;;;9.03;;
48945;SDS011;34999;50.940;3.998;2023-04-15T08:49:05;13.60;;;9.57;;
48945;SDS011;34999;50.940;3.998;2023-04-15T08:51:37;11.40;;;9.50;;
48945;SDS011;34999;50.940;3.998;2023-04-15T08:54:06;14.53;;;9.00;;
48945;SDS011;34999;50.940;3.998;2023-04-15T08:56:37;16.10;;;8.63;;
48945;SDS011;34999;50.940;3.998;2023-04-15T08:59:06;10.90;;;8.87;;
48945;SDS011;34999;50.940;3.998;2023-04-15T09:01:37;10.63;;;8.80;;
48945;SDS011;34999;50.940;3.998;2023-04-15T09:04:06;13.43;;;8.80;;
48945;SDS011;34999;50.940;3.998;2023-04-15T09:06:34;12.77;;;8.83;;
48945;SDS011;34999;50.940;3.998;2023-04-15T09:09:02;10.67;;;8.63;;
48945;SDS011;34999;50.940;3.998;2023-04-15T09:11:30;12.33;;;8.93;;
48945;SDS011;34999;50.940;3.998;2023-04-15T09:14:00;14.53;;;8.97;;
48945;SDS011;34999;50.940;3.998;2023-04-15T09:16:29;12.43;;;8.70;;
48945;SDS011;34999;50.940;3.998;2023-04-15T09:18:57;11.57;;;8.97;;
48945;SDS011;34999;50.940;3.998;2023-04-15T09:21:26;18.10;;;9.10;;
48945;SDS011;34999;50.940;3.998;2023-04-15T09:23:55;13.30;;;9.27;;
48945;SDS011;34999;50.940;3.998;2023-04-15T09:26:31;12.23;;;8.43;;
48945;SDS011;34999;50.940;3.998;2023-04-15T09:29:05;12.57;;;9.13;;
48945;SDS011;34999;50.940;3.998;2023-04-15T09:31:34;11.77;;;8.73;;
48945;SDS011;34999;50.940;3.998;2023-04-15T09:34:03;10.60;;;9.03;;
48945;SDS011;34999;50.940;3.998;2023-04-15T09:36:37;12.23;;;9.13;;
48945;SDS011;34999;50.940;3.998;2023-04-15T09:39:20;10.37;;;8.07;;
48945;SDS011;34999;50.940;3.998;2023-04-15T09:42:03;9.63;;;7.83;;
48945;SDS011;34999;50.940;3.998;2023-04-15T09:44:34;12.97;;;8.20;;
48945;SDS011;34999;50.940;3.998;2023-04-15T09:47:04;9.10;;;7.63;;
48945;SDS011;34999;50.940;3.998;2023-04-15T09:49:32;11.53;;;7.80;;
48945;SDS011;34999;50.940;3.998;2023-04-15T09:52:01;9.20;;;7.30;;
48945;SDS011;34999;50.940;3.998;2023-04-15T09:54:35;11.50;;;7.57;;
48945;SDS011;34999;50.940;3.998;2023-04-15T09:57:05;7.50;;;6.80;;
48945;SDS011;34999;50.940;3.998;2023-04-15T09:59:37;9.93;;;7.27;;
48945;SDS011;34999;50.940;3.998;2023-04-15T10:02:05;6.83;;;6.30;;
48945;SDS011;34999;50.940;3.998;2023-04-15T10:04:34;9.30;;;6.87;;
48945;SDS011;34999;50.940;3.998;2023-04-15T10:07:05;9.30;;;6.87;;
48945;SDS011;34999;50.940;3.998;2023-04-15T10:09:35;7.23;;;6.53;;
48945;SDS011;34999;50.940;3.998;2023-04-15T10:12:04;13.10;;;6.50;;
48945;SDS011;34999;50.940;3.998;2023-04-15T10:14:33;7.00;;;6.07;;
48945;SDS011;34999;50.940;3.998;2023-04-15T10:17:05;6.25;;;5.47;;
48945;SDS011;34999;50.940;3.998;2023-04-15T10:19:37;4.57;;;4.18;;
48945;SDS011;34999;50.940;3.998;2023-04-15T10:22:05;5.53;;;4.05;;
48945;SDS011;34999;50.940;3.998;2023-04-15T10:24:34;5.32;;;4.30;;
48945;SDS011;34999;50.940;3.998;2023-04-15T10:27:05;4.75;;;3.95;;
48945;SDS011;34999;50.940;3.998;2023-04-15T10:29:34;5.80;;;4.63;;
48945;SDS011;34999;50.940;3.998;2023-04-15T10:32:03;5.43;;;3.58;;
48945;SDS011;34999;50.940;3.998;2023-04-15T10:34:33;3.60;;;3.30;;
48945;SDS011;34999;50.940;3.998;2023-04-15T10:37:03;3.77;;;2.97;;
48945;SDS011;34999;50.940;3.998;2023-04-15T10:39:40;2.87;;;2.60;;
48945;SDS011;34999;50.940;3.998;2023-04-15T10:42:10;3.97;;;3.43;;
48945;SDS011;34999;50.940;3.998;2023-04-15T10:44:40;3.90;;;3.60;;
48945;SDS011;34999;50.940;3.998;2023-04-15T10:47:10;4.40;;;4.00;;
48945;SDS011;34999;50.940;3.998;2023-04-15T10:49:44;4.47;;;4.17;;
48945;SDS011;34999;50.940;3.998;2023-04-15T10:52:13;4.40;;;4.10;;
48945;SDS011;34999;50.940;3.998;2023-04-15T10:54:43;4.80;;;4.27;;
48945;SDS011;34999;50.940;3.998;2023-04-15T10:57:15;5.00;;;4.13;;
48945;SDS011;34999;50.940;3.998;2023-04-15T10:59:58;4.60;;;4.17;;
48945;SDS011;34999;50.940;3.998;2023-04-15T11:05:21;3.70;;;3.40;;
48945;SDS011;34999;50.940;3.998;2023-04-15T11:07:50;4.07;;;3.40;;
48945;SDS011;34999;50.940;3.998;2023-04-15T11:13:26;3.20;;;3.00;;
48945;SDS011;34999;50.940;3.998;2023-04-15T11:15:56;3.50;;;3.20;;
48945;SDS011;34999;50.940;3.998;2023-04-15T11:18:29;2.63;;;2.43;;
48945;SDS011;34999;50.940;3.998;2023-04-15T11:21:01;3.07;;;2.80;;
48945;SDS011;34999;50.940;3.998;2023-04-15T11:23:32;3.33;;;2.80;;
48945;SDS011;34999;50.940;3.998;2023-04-15T11:26:02;3.37;;;3.10;;
48945;SDS011;34999;50.940;3.998;2023-04-15T11:28:35;4.63;;;3.40;;
48945;SDS011;34999;50.940;3.998;2023-04-15T11:31:06;4.63;;;3.50;;
48945;SDS011;34999;50.940;3.998;2023-04-15T11:33:37;3.90;;;3.43;;
48945;SDS011;34999;50.940;3.998;2023-04-15T11:36:12;3.43;;;3.13;;
48945;SDS011;34999;50.940;3.998;2023-04-15T11:38:41;3.33;;;3.13;;
48945;SDS011;34999;50.940;3.998;2023-04-15T11:41:11;3.27;;;2.97;;
48945;SDS011;34999;50.940;3.998;2023-04-15T11:43:40;3.40;;;3.23;;
48945;SDS011;34999;50.940;3.998;2023-04-15T11:46:08;3.10;;;2.90;;
48945;SDS011;34999;50.940;3.998;2023-04-15T11:48:40;3.47;;;3.20;;
48945;SDS011;34999;50.940;3.998;2023-04-15T11:51:09;4.03;;;3.73;;
48945;SDS011;34999;50.940;3.998;2023-04-15T11:53:41;4.90;;;3.37;;
48945;SDS011;34999;50.940;3.998;2023-04-15T11:56:10;3.27;;;3.07;;
48945;SDS011;34999;50.940;3.998;2023-04-15T11:58:44;3.93;;;3.00;;
48945;SDS011;34999;50.940;3.998;2023-04-15T12:01:13;2.80;;;2.60;;
48945;SDS011;34999;50.940;3.998;2023-04-15T12:03:42;3.23;;;2.80;;
48945;SDS011;34999;50.940;3.998;2023-04-15T12:06:13;4.80;;;3.17;;
48945;SDS011;34999;50.940;3.998;2023-04-15T12:11:35;3.17;;;2.90;;
48945;SDS011;34999;50.940;3.998;2023-04-15T12:14:09;4.67;;;3.20;;
48945;SDS011;34999;50.940;3.998;2023-04-15T12:16:40;4.00;;;2.77;;
48945;SDS011;34999;50.940;3.998;2023-04-15T12:19:15;3.30;;;2.97;;
48945;SDS011;34999;50.940;3.998;2023-04-15T12:21:47;3.97;;;3.70;;
48945;SDS011;34999;50.940;3.998;2023-04-15T12:24:18;5.43;;;4.03;;
48945;SDS011;34999;50.940;3.998;2023-04-15T12:26:48;4.13;;;3.80;;
48945;SDS011;34999;50.940;3.998;2023-04-15T12:29:18;3.20;;;3.10;;
48945;SDS011;34999;50.940;3.998;2023-04-15T12:31:48;3.40;;;3.23;;
48945;SDS011;34999;50.940;3.998;2023-04-15T12:34:18;2.77;;;2.57;;
48945;SDS011;34999;50.940;3.998;2023-04-15T12:36:54;2.60;;;2.40;;
48945;SDS011;34999;50.940;3.998;2023-04-15T12:39:26;2.47;;;2.37;;
48945;SDS011;34999;50.940;3.998;2023-04-15T12:41:56;5.23;;;2.90;;
48945;SDS011;34999;50.940;3.998;2023-04-15T12:44:26;2.50;;;2.30;;
48945;SDS011;34999;50.940;3.998;2023-04-15T12:46:55;3.20;;;2.90;;
48945;SDS011;34999;50.940;3.998;2023-04-15T12:49:23;3.07;;;2.87;;
48945;SDS011;34999;50.940;3.998;2023-04-15T12:51:53;3.50;;;3.30;;
48945;SDS011;34999;50.940;3.998;2023-04-15T12:54:23;2.97;;;2.87;;
48945;SDS011;34999;50.940;3.998;2023-04-15T12:56:53;7.37;;;4.30;;
48945;SDS011;34999;50.940;3.998;2023-04-15T12:59:22;4.93;;;4.40;;
48945;SDS011;34999;50.940;3.998;2023-04-15T13:01:50;5.53;;;4.20;;
48945;SDS011;34999;50.940;3.998;2023-04-15T13:04:20;4.23;;;3.83;;
48945;SDS011;34999;50.940;3.998;2023-04-15T13:06:48;4.10;;;3.70;;
48945;SDS011;34999;50.940;3.998;2023-04-15T13:09:17;4.97;;;3.43;;
48945;SDS011;34999;50.940;3.998;2023-04-15T13:11:45;3.87;;;3.57;;
48945;SDS011;34999;50.940;3.998;2023-04-15T13:14:15;3.87;;;3.03;;
48945;SDS011;34999;50.940;3.998;2023-04-15T13:16:43;3.60;;;3.10;;
48945;SDS011;34999;50.940;3.998;2023-04-15T13:19:11;3.17;;;3.07;;
48945;SDS011;34999;50.940;3.998;2023-04-15T13:21:40;4.90;;;3.40;;
48945;SDS011;34999;50.940;3.998;2023-04-15T13:24:08;3.60;;;3.30;;
48945;SDS011;34999;50.940;3.998;2023-04-15T13:26:36;5.37;;;3.80;;
48945;SDS011;34999;50.940;3.998;2023-04-15T13:29:05;3.20;;;3.00;;
48945;SDS011;34999;50.940;3.998;2023-04-15T13:31:35;3.50;;;2.93;;
48945;SDS011;34999;50.940;3.998;2023-04-15T13:34:03;3.83;;;3.03;;
48945;SDS011;34999;50.940;3.998;2023-04-15T13:36:32;3.03;;;2.83;;
48945;SDS011;34999;50.940;3.998;2023-04-15T13:39:00;2.87;;;2.67;;
48945;SDS011;34999;50.940;3.998;2023-04-15T13:41:30;3.03;;;2.73;;
48945;SDS011;34999;50.940;3.998;2023-04-15T13:43:59;3.90;;;3.33;;
48945;SDS011;34999;50.940;3.998;2023-04-15T13:46:27;4.97;;;4.27;;
48945;SDS011;34999;50.940;3.998;2023-04-15T13:48:57;5.07;;;3.80;;
48945;SDS011;34999;50.940;3.998;2023-04-15T13:51:25;3.27;;;3.00;;
48945;SDS011;34999;50.940;3.998;2023-04-15T13:53:53;5.53;;;3.60;;
48945;SDS011;34999;50.940;3.998;2023-04-15T13:56:22;3.43;;;3.13;;
48945;SDS011;34999;50.940;3.998;2023-04-15T13:58:51;3.23;;;2.93;;
48945;SDS011;34999;50.940;3.998;2023-04-15T14:01:20;3.17;;;2.93;;
48945;SDS011;34999;50.940;3.998;2023-04-15T14:03:48;4.20;;;2.50;;
48945;SDS011;34999;50.940;3.998;2023-04-15T14:06:18;2.40;;;2.20;;
48945;SDS011;34999;50.940;3.998;2023-04-15T14:08:46;2.80;;;2.10;;
48945;SDS011;34999;50.940;3.998;2023-04-15T14:11:14;2.87;;;2.37;;
48945;SDS011;34999;50.940;3.998;2023-04-15T14:13:43;2.77;;;2.33;;
48945;SDS011;34999;50.940;3.998;2023-04-15T14:16:11;2.87;;;2.60;;
48945;SDS011;34999;50.940;3.998;2023-04-15T14:18:39;5.63;;;2.63;;
48945;SDS011;34999;50.940;3.998;2023-04-15T14:21:07;6.17;;;3.20;;
48945;SDS011;34999;50.940;3.998;2023-04-15T14:23:37;5.73;;;3.23;;
48945;SDS011;34999;50.940;3.998;2023-04-15T14:26:05;3.30;;;2.77;;
48945;SDS011;34999;50.940;3.998;2023-04-15T14:28:34;3.60;;;3.30;;
48945;SDS011;34999;50.940;3.998;2023-04-15T14:31:05;3.97;;;3.40;;
48945;SDS011;34999;50.940;3.998;2023-04-15T14:33:33;5.30;;;3.40;;
48945;SDS011;34999;50.940;3.998;2023-04-15T14:36:02;3.93;;;3.63;;
48945;SDS011;34999;50.940;3.998;2023-04-15T14:38:30;3.77;;;3.47;;
48945;SDS011;34999;50.940;3.998;2023-04-15T14:41:05;4.27;;;3.93;;
48945;SDS011;34999;50.940;3.998;2023-04-15T14:43:34;10.97;;;4.50;;
48945;SDS011;34999;50.940;3.998;2023-04-15T14:46:02;5.03;;;4.43;;
48945;SDS011;34999;50.940;3.998;2023-04-15T14:48:30;10.23;;;4.47;;
48945;SDS011;34999;50.940;3.998;2023-04-15T14:50:59;5.37;;;4.30;;
48945;SDS011;34999;50.940;3.998;2023-04-15T14:53:27;4.60;;;4.20;;
48945;SDS011;34999;50.940;3.998;2023-04-15T14:55:55;5.13;;;4.03;;